Time;durP1;ratioP1;P1;durP2;ratioP2;P2;SDS_P1;SDS_P2;PMS_P1;PMS_P2;Temp;Humidity;BMP_temperature;BMP_pressure;BME280_temperature;BME280_humidity;BME280_pressure;Samples;Min_cycle;Max_cycle;Signal;HPM_P1;HPM_P2
2022/09/17 00:01:05;;;;;;;3.57;3.27;;;;;;;;;;4991846;28;20182;-76
2022/09/17 00:03:31;;;;;;;3.63;3.20;;;;;;;;;;4991307;28;20215;-76
2022/09/17 00:06:00;;;;;;;3.67;3.37;;;;;;;;;;4975437;28;20321;-76
2022/09/17 00:08:25;;;;;;;3.50;3.20;;;;;;;;;;4972479;28;20529;-76
2022/09/17 00:10:50;;;;;;;4.40;3.30;;;;;;;;;;4968155;28;20259;-76
2022/09/17 00:13:15;;;;;;;3.40;3.10;;;;;;;;;;4971180;28;20184;-76
2022/09/17 00:15:44;;;;;;;3.90;3.20;;;;;;;;;;4966057;28;20214;-76
2022/09/17 00:18:10;;;;;;;5.30;3.43;;;;;;;;;;4971296;28;20239;-76
2022/09/17 00:20:39;;;;;;;3.40;3.00;;;;;;;;;;4969893;28;20184;-76
2022/09/17 00:23:05;;;;;;;4.67;3.17;;;;;;;;;;4966680;28;20176;-76
2022/09/17 00:25:30;;;;;;;3.00;2.80;;;;;;;;;;4970723;28;20202;-76
2022/09/17 00:27:55;;;;;;;3.73;3.00;;;;;;;;;;4970169;28;20188;-76
2022/09/17 00:30:20;;;;;;;3.87;3.17;;;;;;;;;;4969419;28;20189;-76
2022/09/17 00:32:45;;;;;;;4.77;2.40;;;;;;;;;;4971829;28;20190;-76
2022/09/17 00:35:11;;;;;;;3.50;3.20;;;;;;;;;;4970662;28;20204;-76
2022/09/17 00:37:36;;;;;;;2.83;2.63;;;;;;;;;;4971827;28;20190;-76
2022/09/17 00:40:01;;;;;;;2.83;2.30;;;;;;;;;;4969616;28;20200;-76
2022/09/17 00:42:27;;;;;;;2.63;2.43;;;;;;;;;;4967710;28;20192;-76
2022/09/17 00:44:54;;;;;;;3.00;2.80;;;;;;;;;;4969077;28;20184;-76
2022/09/17 00:47:22;;;;;;;3.10;2.70;;;;;;;;;;4971381;28;20191;-76
2022/09/17 00:49:49;;;;;;;4.03;2.60;;;;;;;;;;4971097;28;20188;-76
2022/09/17 00:52:16;;;;;;;2.50;2.30;;;;;;;;;;4968467;28;20189;-76
2022/09/17 00:54:43;;;;;;;2.83;2.60;;;;;;;;;;4970991;28;20290;-76
2022/09/17 00:57:09;;;;;;;2.60;2.40;;;;;;;;;;4966809;28;20186;-76
2022/09/17 00:59:35;;;;;;;3.00;2.50;;;;;;;;;;4971311;28;20259;-76
2022/09/17 01:02:00;;;;;;;2.43;2.27;;;;;;;;;;4971598;28;20279;-76
2022/09/17 01:04:26;;;;;;;3.90;3.13;;;;;;;;;;4970977;28;20202;-76
2022/09/17 01:06:56;;;;;;;3.93;2.33;;;;;;;;;;5003767;28;20317;-76
2022/09/17 01:09:32;;;;;;;3.77;2.50;;;;;;;;;;5000801;28;20221;-76
2022/09/17 01:12:36;;;;;;;5.30;2.20;;;;;;;;;;4986656;28;20242;-76
2022/09/17 01:15:01;;;;;;;3.20;2.00;;;;;;;;;;4949131;28;20293;-76
2022/09/17 01:17:34;;;;;;;4.97;1.93;;;;;;;;;;4948014;28;20340;-76
2022/09/17 01:20:18;;;;;;;3.10;1.93;;;;;;;;;;4975131;28;20189;-76
2022/09/17 01:23:02;;;;;;;3.00;2.33;;;;;;;;;;4991438;28;20182;-76
2022/09/17 01:25:37;;;;;;;3.77;2.30;;;;;;;;;;5015044;28;20206;-76
2022/09/17 01:28:21;;;;;;;12.20;2.60;;;;;;;;;;4994470;28;20172;-76
2022/09/17 01:30:52;;;;;;;5.93;2.17;;;;;;;;;;4987238;28;20182;-76
2022/09/17 01:33:33;;;;;;;3.83;2.13;;;;;;;;;;5008881;28;20217;-76
2022/09/17 01:36:19;;;;;;;4.97;2.37;;;;;;;;;;5097016;27;20323;-76
2022/09/17 01:38:48;;;;;;;2.43;2.23;;;;;;;;;;5090540;28;20244;-76
2022/09/17 01:41:20;;;;;;;2.00;1.80;;;;;;;;;;5088017;28;20187;-77
2022/09/17 01:43:55;;;;;;;3.97;1.90;;;;;;;;;;5084634;28;20194;-77
2022/09/17 01:46:29;;;;;;;2.83;2.10;;;;;;;;;;5100921;28;20239;-77
2022/09/17 01:48:57;;;;;;;2.40;2.20;;;;;;;;;;5103893;28;20180;-77
2022/09/17 01:51:25;;;;;;;2.10;1.90;;;;;;;;;;5081336;28;20187;-77
2022/09/17 01:53:53;;;;;;;4.57;2.30;;;;;;;;;;5100944;28;20176;-77
2022/09/17 01:56:23;;;;;;;4.43;2.13;;;;;;;;;;5100092;28;20179;-77
2022/09/17 01:58:52;;;;;;;4.37;2.00;;;;;;;;;;5077247;28;20188;-77
2022/09/17 02:01:19;;;;;;;2.50;2.10;;;;;;;;;;5082553;28;20271;-77
2022/09/17 02:03:52;;;;;;;6.33;2.30;;;;;;;;;;5102172;28;20177;-77
2022/09/17 02:06:21;;;;;;;3.40;2.40;;;;;;;;;;5066259;28;20262;-77
2022/09/17 02:08:50;;;;;;;2.23;1.70;;;;;;;;;;5066367;28;20193;-77
2022/09/17 02:11:16;;;;;;;2.37;2.10;;;;;;;;;;5164136;22;20241;-76
2022/09/17 02:14:03;;;;;;;5.87;2.10;;;;;;;;;;5006196;28;20186;-76
2022/09/17 02:16:31;;;;;;;3.17;2.33;;;;;;;;;;5002456;28;20194;-75
2022/09/17 02:19:12;;;;;;;3.43;2.03;;;;;;;;;;5004647;28;20188;-75
2022/09/17 02:21:55;;;;;;;5.33;2.60;;;;;;;;;;4994923;28;20194;-75
2022/09/17 02:24:25;;;;;;;2.93;1.90;;;;;;;;;;5003709;28;20201;-75
2022/09/17 02:27:02;;;;;;;5.07;2.00;;;;;;;;;;5000513;28;20193;-75
2022/09/17 02:29:32;;;;;;;2.13;1.87;;;;;;;;;;5005000;28;20192;-75
2022/09/17 02:31:58;;;;;;;6.20;2.10;;;;;;;;;;5008198;28;20392;-75
2022/09/17 02:34:25;;;;;;;4.57;2.17;;;;;;;;;;4997017;28;20297;-75
2022/09/17 02:36:51;;;;;;;8.53;2.33;;;;;;;;;;5006091;28;20246;-75
2022/09/17 02:39:22;;;;;;;5.60;2.00;;;;;;;;;;5000439;28;20187;-75
2022/09/17 02:42:07;;;;;;;4.17;2.27;;;;;;;;;;5004967;28;20216;-75
2022/09/17 02:44:57;;;;;;;2.80;1.60;;;;;;;;;;5001243;28;20186;-75
2022/09/17 02:47:41;;;;;;;3.67;2.10;;;;;;;;;;4996556;28;20185;-75
2022/09/17 02:50:13;;;;;;;6.50;1.90;;;;;;;;;;4991374;28;20182;-75
2022/09/17 02:52:57;;;;;;;3.87;1.70;;;;;;;;;;4989749;28;20187;-75
2022/09/17 02:55:40;;;;;;;2.83;1.70;;;;;;;;;;4992027;28;20203;-75
2022/09/17 02:58:05;;;;;;;1.70;1.60;;;;;;;;;;4993379;28;20253;-75
2022/09/17 03:00:31;;;;;;;3.37;1.53;;;;;;;;;;4991118;28;20268;-75
2022/09/17 03:03:00;;;;;;;4.13;1.50;;;;;;;;;;4992867;28;20179;-75
2022/09/17 03:05:26;;;;;;;5.83;2.10;;;;;;;;;;4984326;28;20244;-75
2022/09/17 03:07:53;;;;;;;4.07;2.00;;;;;;;;;;4981528;28;20301;-75
2022/09/17 03:10:18;;;;;;;1.80;1.70;;;;;;;;;;4971730;28;20212;-75
2022/09/17 03:12:44;;;;;;;6.20;2.00;;;;;;;;;;4993126;28;20290;-75
2022/09/17 03:15:09;;;;;;;6.13;2.23;;;;;;;;;;4972287;28;20239;-75
2022/09/17 03:17:34;;;;;;;2.90;1.90;;;;;;;;;;4969963;28;20176;-75
2022/09/17 03:19:59;;;;;;;3.57;2.60;;;;;;;;;;4976661;28;20175;-75
2022/09/17 03:22:25;;;;;;;5.57;2.03;;;;;;;;;;4972038;28;20183;-75
2022/09/17 03:24:50;;;;;;;6.10;2.43;;;;;;;;;;4968574;28;20191;-75
2022/09/17 03:27:15;;;;;;;6.27;2.47;;;;;;;;;;4976558;28;20194;-75
2022/09/17 03:29:40;;;;;;;8.17;2.90;;;;;;;;;;4999389;28;20186;-75
2022/09/17 03:32:06;;;;;;;4.97;2.50;;;;;;;;;;4992269;28;20192;-75
2022/09/17 03:34:31;;;;;;;4.00;2.60;;;;;;;;;;4991727;28;20198;-75
2022/09/17 03:36:57;;;;;;;5.40;2.67;;;;;;;;;;4965194;28;20203;-75
2022/09/17 03:39:22;;;;;;;3.10;2.43;;;;;;;;;;4969569;28;20183;-75
2022/09/17 03:41:47;;;;;;;4.30;2.40;;;;;;;;;;4967977;28;20405;-75
2022/09/17 03:44:14;;;;;;;4.00;2.73;;;;;;;;;;4990269;28;20197;-75
2022/09/17 03:46:39;;;;;;;5.37;2.60;;;;;;;;;;4995671;28;20188;-75
2022/09/17 03:49:04;;;;;;;4.17;3.17;;;;;;;;;;4971236;28;20186;-75
2022/09/17 03:51:30;;;;;;;6.20;2.97;;;;;;;;;;4970629;28;20178;-75
2022/09/17 03:53:55;;;;;;;5.57;3.00;;;;;;;;;;4966168;28;20180;-75
2022/09/17 03:56:20;;;;;;;5.60;3.10;;;;;;;;;;4962156;28;20188;-75
2022/09/17 03:58:45;;;;;;;3.07;2.50;;;;;;;;;;4963991;28;21718;-75
2022/09/17 04:01:10;;;;;;;6.17;2.90;;;;;;;;;;4971734;28;20197;-75
2022/09/17 04:03:36;;;;;;;4.40;2.50;;;;;;;;;;4971166;28;20183;-75
2022/09/17 04:06:01;;;;;;;4.17;2.63;;;;;;;;;;4969617;28;20217;-75
2022/09/17 04:08:26;;;;;;;6.03;3.17;;;;;;;;;;4968587;28;20191;-75
2022/09/17 04:10:52;;;;;;;7.23;2.80;;;;;;;;;;4965395;28;20192;-75
2022/09/17 04:13:17;;;;;;;6.23;3.17;;;;;;;;;;4979978;28;20260;-75
2022/09/17 04:15:43;;;;;;;8.27;3.13;;;;;;;;;;4986589;28;20217;-75
2022/09/17 04:18:09;;;;;;;5.73;3.27;;;;;;;;;;4989996;28;20190;-75
2022/09/17 04:20:35;;;;;;;5.60;3.50;;;;;;;;;;4987658;28;20183;-75
2022/09/17 04:23:01;;;;;;;6.90;3.00;;;;;;;;;;4998918;28;20176;-75
2022/09/17 04:25:26;;;;;;;7.67;3.97;;;;;;;;;;4973546;28;20269;-75
2022/09/17 04:27:51;;;;;;;5.00;3.60;;;;;;;;;;4991023;28;20179;-75
2022/09/17 04:30:16;;;;;;;4.67;3.53;;;;;;;;;;4970829;28;20425;-75
2022/09/17 04:32:42;;;;;;;10.73;9.07;;;;;;;;;;4988445;28;20186;-75
2022/09/17 04:35:08;;;;;;;10.23;6.27;;;;;;;;;;4990640;28;20260;-75
2022/09/17 04:37:33;;;;;;;4.87;3.90;;;;;;;;;;5002300;28;20183;-74
2022/09/17 04:39:58;;;;;;;5.60;3.63;;;;;;;;;;4993591;28;20183;-75
2022/09/17 04:42:24;;;;;;;9.67;4.17;;;;;;;;;;4986020;28;20319;-74
2022/09/17 04:44:49;;;;;;;6.80;4.10;;;;;;;;;;4975216;28;20182;-75
2022/09/17 04:47:14;;;;;;;5.37;3.70;;;;;;;;;;4990360;28;20203;-75
2022/09/17 04:49:39;;;;;;;7.67;4.47;;;;;;;;;;4976950;28;20185;-75
2022/09/17 04:52:05;;;;;;;3.80;3.50;;;;;;;;;;4981529;28;20210;-75
2022/09/17 04:54:30;;;;;;;4.23;3.83;;;;;;;;;;4970565;28;20200;-74
2022/09/17 04:56:55;;;;;;;4.60;3.80;;;;;;;;;;4978932;28;20168;-75
2022/09/17 04:59:20;;;;;;;3.67;3.23;;;;;;;;;;4972889;28;20183;-74
2022/09/17 05:01:46;;;;;;;5.67;3.93;;;;;;;;;;4992572;28;20207;-75
2022/09/17 05:04:11;;;;;;;13.43;3.90;;;;;;;;;;4992850;28;20188;-75
2022/09/17 05:06:36;;;;;;;4.00;3.60;;;;;;;;;;4980738;28;20221;-75
2022/09/17 05:09:01;;;;;;;6.27;4.37;;;;;;;;;;4976449;28;20192;-75
2022/09/17 05:11:27;;;;;;;7.93;4.37;;;;;;;;;;5002136;28;20227;-74
2022/09/17 05:13:52;;;;;;;6.00;4.30;;;;;;;;;;4996724;28;20222;-74
2022/09/17 05:16:17;;;;;;;9.30;4.20;;;;;;;;;;4996432;28;20273;-75
2022/09/17 05:18:43;;;;;;;5.13;3.73;;;;;;;;;;4971061;28;20185;-75
2022/09/17 05:21:08;;;;;;;6.53;4.20;;;;;;;;;;4978129;28;20208;-75
2022/09/17 05:23:33;;;;;;;4.27;3.87;;;;;;;;;;4974484;28;20187;-75
2022/09/17 05:25:59;;;;;;;5.87;4.33;;;;;;;;;;4991449;28;20179;-75
2022/09/17 05:28:24;;;;;;;4.83;3.53;;;;;;;;;;4972992;28;20204;-75
2022/09/17 05:30:50;;;;;;;5.30;3.67;;;;;;;;;;4994548;28;20175;-75
2022/09/17 05:33:15;;;;;;;4.37;3.30;;;;;;;;;;4990345;28;20174;-75
2022/09/17 05:35:42;;;;;;;4.27;3.50;;;;;;;;;;4975202;28;20322;-74
2022/09/17 05:38:08;;;;;;;8.00;4.20;;;;;;;;;;4969940;28;20193;-75
2022/09/17 05:40:33;;;;;;;5.43;4.00;;;;;;;;;;4979770;28;20266;-75
2022/09/17 05:43:00;;;;;;;4.40;4.03;;;;;;;;;;4981683;28;20197;-75
2022/09/17 05:45:25;;;;;;;5.83;4.03;;;;;;;;;;4983037;28;20182;-75
2022/09/17 05:47:54;;;;;;;4.17;3.77;;;;;;;;;;4987106;28;20188;-75
2022/09/17 05:50:19;;;;;;;4.67;3.73;;;;;;;;;;4970599;28;20486;-75
2022/09/17 05:52:44;;;;;;;5.50;3.87;;;;;;;;;;5004474;28;20174;-75
2022/09/17 05:55:10;;;;;;;5.50;4.50;;;;;;;;;;4975668;28;20213;-75
2022/09/17 05:57:35;;;;;;;4.50;4.10;;;;;;;;;;5002056;28;20492;-75
2022/09/17 06:00:00;;;;;;;4.87;4.50;;;;;;;;;;4975159;28;20181;-75
2022/09/17 06:02:25;;;;;;;8.70;4.47;;;;;;;;;;4972393;28;20187;-75
2022/09/17 06:04:51;;;;;;;4.70;4.30;;;;;;;;;;4985170;28;20452;-75
2022/09/17 06:07:16;;;;;;;5.20;4.77;;;;;;;;;;4972953;28;20261;-75
2022/09/17 06:09:41;;;;;;;7.67;5.00;;;;;;;;;;5004222;28;20207;-75
2022/09/17 06:12:07;;;;;;;5.73;4.43;;;;;;;;;;4963933;28;20314;-75
2022/09/17 06:14:32;;;;;;;6.13;4.93;;;;;;;;;;4966455;28;20219;-75
2022/09/17 06:16:57;;;;;;;6.60;4.10;;;;;;;;;;4958893;28;20238;-77
2022/09/17 06:19:23;;;;;;;13.83;6.80;;;;;;;;;;4969859;28;20179;-77
2022/09/17 06:21:49;;;;;;;4.70;4.03;;;;;;;;;;4970273;28;20206;-75
2022/09/17 06:24:14;;;;;;;6.37;4.47;;;;;;;;;;4971822;28;20226;-75
2022/09/17 06:26:40;;;;;;;5.00;4.23;;;;;;;;;;4969596;28;20183;-75
2022/09/17 06:29:05;;;;;;;8.27;4.50;;;;;;;;;;4964500;28;20195;-75
2022/09/17 06:31:30;;;;;;;4.40;3.47;;;;;;;;;;4969996;28;20207;-75
2022/09/17 06:33:56;;;;;;;5.43;4.17;;;;;;;;;;4972322;28;20174;-75
2022/09/17 06:36:21;;;;;;;4.93;4.23;;;;;;;;;;4976635;28;20182;-75
2022/09/17 06:38:49;;;;;;;3.33;2.97;;;;;;;;;;4970588;28;20182;-74
2022/09/17 06:41:15;;;;;;;4.67;3.43;;;;;;;;;;4973396;28;20179;-74
2022/09/17 06:43:41;;;;;;;5.00;3.90;;;;;;;;;;4971113;28;20577;-74
2022/09/17 06:46:07;;;;;;;4.03;3.50;;;;;;;;;;4968536;28;20203;-74
2022/09/17 06:48:34;;;;;;;4.77;3.53;;;;;;;;;;4992432;28;20260;-74
2022/09/17 06:51:04;;;;;;;3.00;2.70;;;;;;;;;;4974269;28;20185;-74
2022/09/17 06:53:30;;;;;;;4.53;3.00;;;;;;;;;;4987106;28;20189;-74
2022/09/17 06:55:56;;;;;;;2.93;2.70;;;;;;;;;;4973122;28;20201;-74
2022/09/17 06:58:21;;;;;;;3.53;3.00;;;;;;;;;;4977922;28;20221;-74
2022/09/17 07:00:46;;;;;;;4.70;3.30;;;;;;;;;;4981003;28;20203;-74
2022/09/17 07:03:11;;;;;;;4.33;2.80;;;;;;;;;;4965949;28;20186;-74
2022/09/17 07:05:37;;;;;;;2.70;2.47;;;;;;;;;;4966226;28;20205;-74
2022/09/17 07:08:02;;;;;;;3.27;2.83;;;;;;;;;;4967317;28;20186;-74
2022/09/17 07:10:28;;;;;;;3.87;2.70;;;;;;;;;;4967761;28;20299;-74
2022/09/17 07:12:57;;;;;;;3.07;2.80;;;;;;;;;;4987291;28;20260;-74
2022/09/17 07:15:23;;;;;;;5.00;2.50;;;;;;;;;;4967979;28;20232;-74
2022/09/17 07:17:48;;;;;;;2.87;2.50;;;;;;;;;;4989075;28;20179;-74
2022/09/17 07:20:20;;;;;;;3.00;2.73;;;;;;;;;;4983136;28;20187;-73
2022/09/17 07:22:53;;;;;;;5.60;2.30;;;;;;;;;;4994167;28;20179;-74
2022/09/17 07:25:18;;;;;;;3.53;2.70;;;;;;;;;;4996719;28;20243;-74
2022/09/17 07:27:44;;;;;;;3.90;3.47;;;;;;;;;;4972077;28;20426;-74
2022/09/17 07:30:09;;;;;;;3.63;3.00;;;;;;;;;;4976248;28;20204;-74
2022/09/17 07:32:37;;;;;;;7.60;5.30;;;;;;;;;;4969511;28;20179;-74
2022/09/17 07:35:03;;;;;;;4.67;3.47;;;;;;;;;;4971680;28;20210;-74
2022/09/17 07:37:28;;;;;;;15.33;12.70;;;;;;;;;;4989930;28;20193;-74
2022/09/17 07:39:54;;;;;;;8.10;6.20;;;;;;;;;;4994169;28;20192;-74
2022/09/17 07:42:19;;;;;;;7.13;4.83;;;;;;;;;;4970308;28;20191;-74
2022/09/17 07:44:45;;;;;;;8.30;4.60;;;;;;;;;;4994804;28;20229;-74
2022/09/17 07:47:11;;;;;;;5.93;4.23;;;;;;;;;;4989046;28;20186;-74
2022/09/17 07:49:36;;;;;;;5.03;4.53;;;;;;;;;;4977823;28;20246;-74
2022/09/17 07:52:05;;;;;;;7.60;4.53;;;;;;;;;;4978634;28;20182;-74
2022/09/17 07:54:30;;;;;;;7.40;4.13;;;;;;;;;;4977389;28;20416;-74
2022/09/17 07:56:56;;;;;;;6.70;4.83;;;;;;;;;;4978535;28;20182;-74
2022/09/17 07:59:21;;;;;;;11.77;4.70;;;;;;;;;;4978119;28;20182;-74
2022/09/17 08:01:46;;;;;;;4.87;3.73;;;;;;;;;;4975124;28;20176;-74
2022/09/17 08:04:12;;;;;;;7.53;4.27;;;;;;;;;;4979054;28;20206;-74
2022/09/17 08:06:38;;;;;;;5.93;3.97;;;;;;;;;;4976182;28;20201;-75
2022/09/17 08:09:04;;;;;;;6.07;4.03;;;;;;;;;;4983844;28;20186;-74
2022/09/17 08:11:29;;;;;;;7.83;4.33;;;;;;;;;;4991245;28;20233;-74
2022/09/17 08:13:55;;;;;;;8.30;4.37;;;;;;;;;;4973545;28;20215;-75
2022/09/17 08:16:21;;;;;;;5.87;3.90;;;;;;;;;;4986619;28;20294;-74
2022/09/17 08:18:47;;;;;;;9.90;4.87;;;;;;;;;;4972426;28;20202;-74
2022/09/17 08:21:14;;;;;;;6.57;3.57;;;;;;;;;;4978981;28;20180;-77
2022/09/17 08:23:40;;;;;;;7.57;4.40;;;;;;;;;;4977671;28;20246;-75
2022/09/17 08:26:07;;;;;;;9.40;5.10;;;;;;;;;;4971433;28;20186;-74
2022/09/17 08:28:33;;;;;;;9.17;4.87;;;;;;;;;;4975032;28;20183;-75
2022/09/17 08:31:07;;;;;;;13.77;4.30;;;;;;;;;;4987016;28;20316;-75
2022/09/17 08:33:34;;;;;;;3.97;3.20;;;;;;;;;;4974713;28;20180;-75
2022/09/17 08:36:00;;;;;;;5.00;3.60;;;;;;;;;;4973218;28;20304;-75
2022/09/17 08:38:29;;;;;;;7.33;3.80;;;;;;;;;;4989992;28;20202;-75
2022/09/17 08:41:10;;;;;;;8.17;3.70;;;;;;;;;;5002590;28;20179;-75
2022/09/17 08:43:49;;;;;;;4.17;3.37;;;;;;;;;;4986903;28;20268;-75
2022/09/17 08:46:14;;;;;;;8.07;4.13;;;;;;;;;;4976337;28;20209;-75
2022/09/17 08:48:42;;;;;;;8.80;4.40;;;;;;;;;;4978378;28;20218;-75
2022/09/17 08:51:14;;;;;;;8.63;4.07;;;;;;;;;;4979096;28;20186;-75
2022/09/17 08:53:45;;;;;;;5.90;4.17;;;;;;;;;;4989603;28;20222;-74
2022/09/17 08:56:15;;;;;;;8.60;4.67;;;;;;;;;;4997415;28;20211;-75
2022/09/17 08:58:48;;;;;;;7.97;5.07;;;;;;;;;;4973766;28;20189;-75
2022/09/17 09:01:26;;;;;;;6.50;4.10;;;;;;;;;;4987280;28;20176;-75
2022/09/17 09:03:55;;;;;;;9.83;5.27;;;;;;;;;;4976263;28;20202;-75
2022/09/17 09:06:23;;;;;;;7.83;4.83;;;;;;;;;;4995216;28;20298;-75
2022/09/17 09:09:08;;;;;;;9.97;5.10;;;;;;;;;;4993960;28;20194;-75
2022/09/17 09:11:34;;;;;;;9.17;4.97;;;;;;;;;;4952067;28;20674;-75
2022/09/17 09:14:08;;;;;;;7.27;4.20;;;;;;;;;;4971129;28;20185;-75
2022/09/17 09:16:37;;;;;;;5.13;3.90;;;;;;;;;;4972801;28;20218;-75
2022/09/17 09:19:18;;;;;;;4.13;3.60;;;;;;;;;;4976229;28;20209;-75
2022/09/17 09:21:48;;;;;;;6.13;3.43;;;;;;;;;;4968625;28;20184;-75
2022/09/17 09:24:25;;;;;;;20.60;12.03;;;;;;;;;;4970828;28;20202;-78
2022/09/17 09:27:05;;;;;;;7.67;4.20;;;;;;;;;;4970471;28;20182;-78
2022/09/17 09:29:33;;;;;;;5.77;4.40;;;;;;;;;;4976003;28;20186;-78
2022/09/17 09:32:15;;;;;;;9.17;4.13;;;;;;;;;;4983815;28;20203;-75
2022/09/17 09:34:40;;;;;;;6.17;3.77;;;;;;;;;;4972135;28;20214;-75
2022/09/17 09:37:17;;;;;;;4.90;4.10;;;;;;;;;;4966732;28;20184;-75
2022/09/17 09:39:44;;;;;;;11.63;4.30;;;;;;;;;;4972710;28;20174;-75
2022/09/17 09:42:14;;;;;;;6.37;4.23;;;;;;;;;;4964091;28;20429;-75
2022/09/17 09:44:40;;;;;;;4.40;4.00;;;;;;;;;;4970119;28;20197;-75
2022/09/17 09:47:05;;;;;;;7.10;3.47;;;;;;;;;;4977655;28;20272;-76
2022/09/17 09:49:42;;;;;;;11.97;4.10;;;;;;;;;;4968368;28;20183;-76
2022/09/17 09:52:25;;;;;;;8.23;4.10;;;;;;;;;;4966045;28;20191;-76
2022/09/17 09:54:51;;;;;;;5.37;3.70;;;;;;;;;;4968697;28;20204;-75
2022/09/17 09:57:18;;;;;;;4.47;4.07;;;;;;;;;;4971808;28;20264;-75
2022/09/17 09:59:43;;;;;;;5.17;3.53;;;;;;;;;;4976492;28;20185;-76
2022/09/17 10:02:09;;;;;;;4.27;3.83;;;;;;;;;;4973727;28;20243;-76
2022/09/17 10:04:34;;;;;;;9.07;5.13;;;;;;;;;;4987284;28;20239;-76
2022/09/17 10:07:02;;;;;;;3.47;3.00;;;;;;;;;;4973047;28;20241;-75
2022/09/17 10:09:31;;;;;;;6.10;3.07;;;;;;;;;;4977362;28;20215;-76
2022/09/17 10:12:00;;;;;;;5.00;2.40;;;;;;;;;;4970749;28;20231;-76
2022/09/17 10:14:30;;;;;;;7.77;3.30;;;;;;;;;;4978449;28;20228;-76
2022/09/17 10:17:13;;;;;;;6.23;3.20;;;;;;;;;;4971639;28;20177;-76
2022/09/17 10:19:38;;;;;;;5.03;2.87;;;;;;;;;;4979946;28;20218;-76
2022/09/17 10:22:19;;;;;;;10.40;3.23;;;;;;;;;;4969024;28;20224;-76
2022/09/17 10:24:44;;;;;;;4.30;2.47;;;;;;;;;;4971081;28;20184;-76
2022/09/17 10:27:12;;;;;;;8.23;3.10;;;;;;;;;;4972301;28;20202;-76
2022/09/17 10:29:41;;;;;;;5.83;2.20;;;;;;;;;;4974438;28;20177;-76
2022/09/17 10:32:13;;;;;;;4.50;2.60;;;;;;;;;;4966669;28;20190;-76
2022/09/17 10:34:40;;;;;;;3.50;2.10;;;;;;;;;;4967977;28;20201;-76
2022/09/17 10:37:25;;;;;;;5.83;2.33;;;;;;;;;;4971549;28;20181;-77
2022/09/17 10:39:52;;;;;;;3.33;2.13;;;;;;;;;;4970079;28;20188;-76
2022/09/17 10:42:18;;;;;;;4.67;2.60;;;;;;;;;;4976522;28;20259;-76
2022/09/17 10:44:49;;;;;;;3.47;2.23;;;;;;;;;;4976215;28;20177;-76
2022/09/17 10:47:20;;;;;;;6.57;2.50;;;;;;;;;;4978176;28;20187;-76
2022/09/17 10:49:47;;;;;;;5.67;2.57;;;;;;;;;;4976510;28;20188;-76
2022/09/17 10:52:12;;;;;;;3.90;2.30;;;;;;;;;;4974509;28;20185;-76
2022/09/17 10:54:46;;;;;;;5.33;2.07;;;;;;;;;;4975665;28;20216;-76
2022/09/17 10:57:15;;;;;;;3.57;2.20;;;;;;;;;;4968771;28;20254;-76
2022/09/17 11:00:00;;;;;;;5.67;3.13;;;;;;;;;;4974191;28;20181;-76
2022/09/17 11:02:38;;;;;;;3.17;2.40;;;;;;;;;;4976563;28;20193;-76
2022/09/17 11:05:22;;;;;;;3.37;2.20;;;;;;;;;;4976298;28;20256;-76
2022/09/17 11:07:59;;;;;;;8.00;2.50;;;;;;;;;;4968212;28;20186;-76
2022/09/17 11:10:29;;;;;;;2.40;1.97;;;;;;;;;;4972047;28;20212;-76
2022/09/17 11:12:54;;;;;;;4.17;2.23;;;;;;;;;;4987124;28;20300;-76
2022/09/17 11:15:22;;;;;;;2.93;2.10;;;;;;;;;;4975924;28;20209;-76
2022/09/17 11:17:58;;;;;;;2.73;1.80;;;;;;;;;;4980966;28;20179;-76
2022/09/17 11:20:42;;;;;;;3.20;2.33;;;;;;;;;;4974198;28;20201;-76
2022/09/17 11:23:26;;;;;;;3.03;2.23;;;;;;;;;;4973915;28;20181;-76
2022/09/17 11:25:57;;;;;;;2.30;1.40;;;;;;;;;;4972150;28;20504;-76
2022/09/17 11:28:25;;;;;;;1.57;1.47;;;;;;;;;;4974644;28;20182;-76
2022/09/17 11:31:13;;;;;;;2.90;2.07;;;;;;;;;;4988466;28;20286;-76
2022/09/17 11:33:58;;;;;;;5.70;2.03;;;;;;;;;;4968573;28;20174;-76
2022/09/17 11:36:26;;;;;;;4.17;2.00;;;;;;;;;;4988821;28;20209;-76
2022/09/17 11:38:54;;;;;;;4.93;2.37;;;;;;;;;;5002525;28;20355;-76
2022/09/17 11:41:35;;;;;;;2.10;1.90;;;;;;;;;;4971702;28;20178;-76
2022/09/17 11:44:03;;;;;;;3.27;1.87;;;;;;;;;;5002473;28;20252;-76
2022/09/17 11:46:36;;;;;;;2.73;1.83;;;;;;;;;;4982536;28;20182;-76
2022/09/17 11:49:04;;;;;;;8.23;5.23;;;;;;;;;;4982505;28;20229;-76
2022/09/17 11:51:41;;;;;;;5.67;3.50;;;;;;;;;;4991329;28;20183;-76
2022/09/17 11:54:06;;;;;;;4.33;1.87;;;;;;;;;;4977813;28;20259;-76
2022/09/17 11:56:39;;;;;;;2.93;1.67;;;;;;;;;;4991735;28;20277;-76
2022/09/17 11:59:18;;;;;;;3.40;1.93;;;;;;;;;;4990801;28;20188;-77
2022/09/17 12:01:48;;;;;;;2.37;1.80;;;;;;;;;;4983926;28;20186;-76
2022/09/17 12:04:32;;;;;;;1.70;1.60;;;;;;;;;;4988941;28;20189;-76
2022/09/17 12:07:09;;;;;;;2.20;1.83;;;;;;;;;;4977406;28;20181;-76
2022/09/17 12:09:35;;;;;;;3.93;2.33;;;;;;;;;;4991491;28;20182;-75
2022/09/17 12:12:13;;;;;;;3.73;1.93;;;;;;;;;;4972223;28;20230;-76
2022/09/17 12:15:00;;;;;;;2.33;1.63;;;;;;;;;;4985667;28;20216;-76
2022/09/17 12:17:32;;;;;;;9.83;2.60;;;;;;;;;;4972024;28;20271;-76
2022/09/17 12:20:00;;;;;;;5.30;1.63;;;;;;;;;;4971847;28;20273;-76
2022/09/17 12:22:28;;;;;;;2.77;1.73;;;;;;;;;;4968912;28;20186;-76
2022/09/17 12:24:53;;;;;;;2.67;1.70;;;;;;;;;;4967249;28;20196;-76
2022/09/17 12:27:19;;;;;;;5.77;2.43;;;;;;;;;;4965527;28;20189;-76
2022/09/17 12:29:47;;;;;;;2.53;2.20;;;;;;;;;;4987897;28;20200;-77
2022/09/17 12:32:13;;;;;;;6.23;2.07;;;;;;;;;;4972897;28;20202;-76
2022/09/17 12:34:57;;;;;;;2.40;1.40;;;;;;;;;;4965317;28;20255;-75
2022/09/17 12:37:37;;;;;;;1.83;1.60;;;;;;;;;;4966739;28;20205;-75
2022/09/17 12:40:08;;;;;;;2.37;1.73;;;;;;;;;;4970184;28;20185;-75
2022/09/17 12:43:04;;;;;;;1.40;1.00;;;;;;;;;;4972236;28;20212;-75
2022/09/17 12:45:39;;;;;;;1.00;1.00;;;;;;;;;;4957779;28;20193;-75
2022/09/17 12:48:07;;;;;;;3.23;1.73;;;;;;;;;;4965198;28;20185;-75
2022/09/17 12:50:54;;;;;;;1.40;1.10;;;;;;;;;;4981834;28;20174;-76
2022/09/17 12:53:22;;;;;;;1.77;1.50;;;;;;;;;;4979846;28;20185;-75
2022/09/17 12:55:54;;;;;;;1.30;1.20;;;;;;;;;;4971751;28;20292;-75
2022/09/17 12:58:22;;;;;;;1.57;1.47;;;;;;;;;;4969710;28;20184;-75
2022/09/17 13:00:51;;;;;;;2.60;1.40;;;;;;;;;;4967694;28;20227;-76
2022/09/17 13:03:33;;;;;;;3.63;1.70;;;;;;;;;;4972154;28;20185;-75
2022/09/17 13:06:17;;;;;;;1.60;1.30;;;;;;;;;;4972146;28;20260;-76
2022/09/17 13:09:05;;;;;;;1.60;1.50;;;;;;;;;;4974337;28;20235;-76
2022/09/17 13:11:45;;;;;;;2.93;1.83;;;;;;;;;;4976161;28;20223;-75
2022/09/17 13:14:16;;;;;;;4.03;2.47;;;;;;;;;;4965054;28;20201;-75
2022/09/17 13:16:44;;;;;;;4.10;2.00;;;;;;;;;;4987261;28;20180;-76
2022/09/17 13:19:35;;;;;;;2.33;2.10;;;;;;;;;;4969902;28;20185;-76
2022/09/17 13:22:17;;;;;;;4.77;2.60;;;;;;;;;;4966811;28;20193;-75
2022/09/17 13:24:45;;;;;;;4.03;2.43;;;;;;;;;;4970271;28;20180;-75
2022/09/17 13:27:22;;;;;;;4.03;2.00;;;;;;;;;;4976075;28;20254;-75
2022/09/17 13:29:53;;;;;;;7.17;2.20;;;;;;;;;;4987118;28;20172;-75
2022/09/17 13:32:33;;;;;;;4.00;2.27;;;;;;;;;;4981227;28;20184;-74
2022/09/17 13:35:10;;;;;;;3.23;1.90;;;;;;;;;;4989037;28;20196;-75
2022/09/17 13:37:37;;;;;;;3.43;2.27;;;;;;;;;;4985769;28;20171;-75
2022/09/17 13:40:05;;;;;;;2.60;1.77;;;;;;;;;;4991788;28;20165;-75
2022/09/17 13:42:41;;;;;;;3.70;1.90;;;;;;;;;;4980484;28;20283;-75
2022/09/17 13:45:15;;;;;;;2.93;2.17;;;;;;;;;;4988334;28;20181;-75
2022/09/17 13:47:52;;;;;;;5.90;2.40;;;;;;;;;;4971984;28;20184;-75
2022/09/17 13:50:25;;;;;;;3.97;2.37;;;;;;;;;;4996522;28;20186;-75
2022/09/17 13:52:50;;;;;;;4.10;2.33;;;;;;;;;;4986594;28;20188;-75
2022/09/17 13:55:30;;;;;;;3.47;1.97;;;;;;;;;;4974583;28;20213;-75
2022/09/17 13:57:55;;;;;;;6.70;4.27;;;;;;;;;;4970230;28;20182;-75
2022/09/17 14:00:40;;;;;;;4.27;1.87;;;;;;;;;;4976620;28;20188;-76
2022/09/17 14:03:24;;;;;;;3.07;1.93;;;;;;;;;;4973347;28;20189;-75
2022/09/17 14:05:50;;;;;;;5.83;3.77;;;;;;;;;;4967283;28;20192;-75
2022/09/17 14:08:26;;;;;;;4.40;2.50;;;;;;;;;;4989881;28;20181;-75
2022/09/17 14:10:52;;;;;;;4.83;2.53;;;;;;;;;;4984647;28;20269;-76
2022/09/17 14:13:24;;;;;;;2.20;1.97;;;;;;;;;;4969561;28;20334;-76
2022/09/17 14:15:55;;;;;;;4.37;2.60;;;;;;;;;;4970511;28;20255;-76
2022/09/17 14:18:26;;;;;;;3.87;2.40;;;;;;;;;;4965173;28;20238;-76
2022/09/17 14:20:54;;;;;;;4.07;2.13;;;;;;;;;;4977030;28;20247;-76
2022/09/17 14:23:19;;;;;;;7.13;2.00;;;;;;;;;;4972069;28;20179;-76
2022/09/17 14:25:48;;;;;;;2.20;2.00;;;;;;;;;;4976499;28;20274;-76
2022/09/17 14:28:33;;;;;;;2.20;1.90;;;;;;;;;;4966543;28;20190;-76
2022/09/17 14:31:01;;;;;;;3.90;1.80;;;;;;;;;;4972921;28;20280;-76
2022/09/17 14:33:29;;;;;;;3.87;2.30;;;;;;;;;;4970048;28;20597;-76
2022/09/17 14:35:59;;;;;;;3.23;2.27;;;;;;;;;;4970029;28;20211;-76
2022/09/17 14:38:38;;;;;;;2.67;2.00;;;;;;;;;;4964761;28;20191;-76
2022/09/17 14:41:16;;;;;;;2.67;2.10;;;;;;;;;;4975556;28;20195;-76
2022/09/17 14:43:48;;;;;;;3.97;2.03;;;;;;;;;;4970003;28;20186;-75
2022/09/17 14:46:19;;;;;;;5.53;2.40;;;;;;;;;;4985156;28;20192;-76
2022/09/17 14:48:44;;;;;;;3.20;1.93;;;;;;;;;;4973170;28;20181;-75
2022/09/17 14:51:18;;;;;;;3.07;2.77;;;;;;;;;;4975428;28;20264;-76
2022/09/17 14:54:04;;;;;;;3.97;2.50;;;;;;;;;;4979181;28;20185;-76
2022/09/17 14:56:30;;;;;;;4.87;1.90;;;;;;;;;;4976151;28;20206;-76
2022/09/17 14:58:55;;;;;;;2.90;2.10;;;;;;;;;;4973182;28;20173;-76